Buy us a beer!

Thursday, September 3, 2026 18°51'S 168°9'W

Pacific Ocean, 500NM W of Aitutaki

The night started quite rough, with a series of 32kn gusts rolling over the boat. As we had reefed down early, dealing with them meant just doing a slight weather helm correction on the windvane, and then zipping down the dodger backdrop. Such luxury to stay dry in conditions like this!

By midnight the worst was over. Around 3am the off-watch was roused for a happier occasion: we had just crossed W166°48’24” of longitude, which happens to be the antimeridian of our home port in Berlin. Now all Nautical Miles sailed will be closer to home.

Quite pleasant sailing conditions followed. Wind in the teens and slowly decreasing sea state. Some moments of lull brought slatting sails, and we hope that there’s enough wind until Niue.



From the logbook

Time Position Course Speed Log Weather Remarks
03.09. 0:59 Z 18°42'37"S 165°30'2"W 289° 5.9kt 712.3NM wind 18.5kt 130° baro 1018 hPa Hourly position log
03.09. 1:47 Z 18°41'24"S 165°34'31"W 306° 5.5kt 716.8NM wind 20kt 142° baro 1018 hPa Watermaker 211ppm
03.09. 1:59 Z 18°40'59"S 165°35'34"W 303° 4.5kt 717.9NM wind 19.2kt 141° baro 1018 hPa Hourly position log
03.09. 2:58 Z 18°39'53"S 165°41'13"W 288° 6.3kt 723.4NM wind 22.3kt 135° baro 1018 hPa Hourly position log
03.09. 3:17 Z 18°39'41"S 165°43'12"W 267° 7.2kt 725.3NM wind 24.6kt 126° baro 1018 hPa Watermaker 192ppm. Stopped.
03.09. 3:59 Z 18°38'41"S 165°47'24"W 259° 6.5kt 729.4NM wind 30.6kt 127° baro 1018 hPa Hourly position log
03.09. 3:59 Z 18°38'41"S 165°47'24"W 259° 6.5kt 729.4NM wind 30.6kt 127° baro 1018 hPa Squall, gusting 31kn
03.09. 4:59 Z 18°38'0"S 165°53'34"W 307° 6.4kt 735.3NM wind 19.6kt 141° baro 1018 hPa Hourly position log
03.09. 5:00 Z 18°37'58"S 165°53'40"W 301° 4.8kt 735.5NM wind 19.6kt 140° baro 1018 hPa bergie on watch
03.09. 5:59 Z 18°36'53"S 165°59'44"W 261° 8.4kt 741.4NM wind 25.2kt 122° baro 1019 hPa Hourly position log
03.09. 6:14 Z 18°36'49"S 166°1'15"W 271° 6.3kt 742.9NM wind 19.5kt 130° baro 1019 hPa Alarm: Water in the bilge (electrical.venus-input.1.stateNumber)
03.09. 6:15 Z 18°36'42"S 166°1'57"W 282° 4.9kt 743.6NM wind 21.6kt 128° baro 1019 hPa Pumped the bilge. Cleared after 2 min: Water in the bilge
03.09. 6:59 Z 18°36'37"S 166°5'36"W 266° 5.8kt 747.1NM wind 22.1kt 124° baro 1019 hPa Hourly position log
03.09. 7:59 Z 18°35'36"S 166°11'38"W 289° 6.1kt 753NM wind 19.2kt 130° baro 1019 hPa Hourly position log
03.09. 8:19 Z 18°35'5"S 166°13'38"W 277° 6.2kt 755NM wind 19.8kt 124° baro 1019 hPa That was the 4th squall above 32kn in as many hours
03.09. 8:59 Z 18°34'24"S 166°17'38"W 267° 5.5kt 758.9NM wind 22.2kt 121° baro 1020 hPa Hourly position log
03.09. 9:59 Z 18°33'45"S 166°23'48"W 280° 6.7kt 764.9NM wind 20kt 124° baro 1020 hPa Hourly position log
03.09. 11:00 Z 18°33'18"S 166°29'47"W 260° 6.4kt 770.7NM wind 21.7kt 118° baro 1019 hPa Suski on watch
03.09. 11:59 Z 18°33'21"S 166°35'58"W 267° 5.8kt 776.5NM wind 17kt 126° baro 1019 hPa Hourly position log
03.09. 12:59 Z 18°33'6"S 166°41'49"W 284° 5.9kt 782.1NM wind 16.2kt 118° baro 1018 hPa Hourly position log
03.09. 13:59 Z 18°33'26"S 166°47'40"W 267° 7.6kt 787.7NM wind 20.8kt 128° baro 1018 hPa Hourly position log
03.09. 14:08 Z 18°33'31"S 166°48'33"W 245° 5.1kt 788.6NM wind 19.8kt 119° baro 1018 hPa Gothia Anti-Meridian passed!
03.09. 14:59 Z 18°34'6"S 166°53'48"W 253° 5kt 793.6NM wind 17.4kt 117° baro 1018 hPa Hourly position log
03.09. 15:59 Z 18°34'24"S 166°59'57"W 258° 4.5kt 799.5NM wind 18.3kt 117° baro 1018 hPa Hourly position log
03.09. 17:00 Z 18°34'59"S 167°6'10"W 263° 4.8kt 805.5NM wind 18.9kt 106° sea state 4/10 clouds 3/8 visibility 7/10 baro 1018 hPa bergie on watch
03.09. 17:59 Z 18°35'35"S 167°11'51"W 246° 5.7kt 811NM wind 16.7kt 114° baro 1019 hPa Hourly position log
03.09. 18:59 Z 18°36'22"S 167°17'19"W 232° 5.1kt 816.2NM wind 16.6kt 106° baro 1019 hPa Hourly position log
03.09. 19:51 Z 18°37'10"S 167°21'44"W 253° 6.3kt 820.6NM wind 17.8kt 105° baro 1019 hPa Sails set: Main (1st reef), Genoa 1 (30% furled)
03.09. 19:59 Z 18°37'15"S 167°22'28"W 257° 5.9kt 821.3NM wind 19kt 115° baro 1019 hPa Hourly position log
03.09. 20:22 Z 18°37'29"S 167°24'31"W 255° 5.5kt 823.3NM wind 12.9kt 116° baro 1019 hPa Started watermaker
03.09. 20:35 Z 18°37'36"S 167°25'45"W 246° 7.3kt 824.4NM wind 20.3kt 108° baro 1019 hPa Watermaker 372ppm
03.09. 20:59 Z 18°38'1"S 167°27'57"W 292° 5.2kt 826.6NM wind 13.1kt 112° baro 1019 hPa Hourly position log
03.09. 21:59 Z 18°39'32"S 167°32'55"W 228° 4.8kt 831.6NM wind 10.6kt 89° baro 1019 hPa Hourly position log
03.09. 22:12 Z 18°40'1"S 167°33'54"W 248° 6.4kt 832.6NM wind 13.7kt 100° baro 1019 hPa Sails set: Main, Genoa 1 (20% furled)
03.09. 22:21 Z 18°40'14"S 167°34'38"W 270° 5.5kt 833.4NM wind 15.5kt 110° baro 1018 hPa Watermaker 278ppm
03.09. 22:59 Z 18°41'0"S 167°38'10"W 256° 5.3kt 836.8NM wind 11.4kt 113° baro 1018 hPa Hourly position log
03.09. 23:00 Z 18°41'0"S 167°38'16"W 286° 5.6kt 836.9NM wind 14.4kt 107° baro 1018 hPa Suski on watch
03.09. 23:54 Z 18°42'43"S 167°43'16"W 246° 6.8kt 842NM wind 15.4kt 110° baro 1017 hPa Watermaker 247ppm
03.09. 23:59 Z 18°42'52"S 167°43'44"W 244° 5.9kt 842.5NM wind 14.6kt 108° baro 1017 hPa Hourly position log